Terminal Aerodrome Forecast
Issued by NWS Los Angeles, CA

Home | Current Version | Previous Version | Text Only | Print | Product List | Glossary On
Versions: 1 2 3 4 5 6 7 8 9 10 11 12
000
FTUS46 KLOX 172359
TAFSMX
TAF
KSMX 172359Z 1800/1824 31007KT P6SM BKN250
     FM180300 VRB03KT P6SM SCT007 OVC250
     FM180800 VRB04KT 3SM BR BKN007 BKN150
     FM181300 17005KT P6SM BKN015 BKN090
     FM181900 19010KT P6SM -SHRA BKN020 OVC040=

USA.gov is the U.S. government's official web portal to all federal, state and local government web resources and services.